Latest Weather Observations for Barrow Island

IDW60801

Issued at 5:35 pm WST Friday 22 August 2014 (issued every 30 minutes, with the page automatically refreshed every 10 minutes)

About weather observations | Map of weather stations | Latest weather observations for WA | Other Formats
Station Details ID: 005094 Name: BARROW ISLAND AIRPORT Lat: -20.88 Lon: 115.41 Height: 6.4 m
Data from the previous 72 hours. | See also: Recent months at Barrow Island
Date/Time
WST
Temp
°C
App
Temp
°C
Dew
Point
Rel
Hum
%
Delta-T
°C
Wind Press
QNH
hPa
Press
MSL
hPa
Rain
since 9 am
mm
Dir
 
Spd
km/h
Gust
km/h
Spd
kts
Gust
kts
22/05:30pm 25.8 21.6 7.4 31 9.7 NNE 19 22 10 12 1015.4 - 0.0
22/05:00pm 26.9 22.8 7.9 30 10.2 NNE 19 24 10 13 1015.1 - 0.0
22/04:30pm 25.4 22.3 13.3 47 7.1 NE 22 24 12 13 1014.8 - 0.0
22/04:00pm 26.0 23.3 11.7 41 8.2 ENE 17 19 9 10 1014.6 - 0.0
22/03:30pm 25.5 24.7 14.0 49 6.8 E 11 13 6 7 1014.5 - 0.0
22/03:00pm 25.6 25.9 15.9 55 5.9 E 9 11 5 6 1014.7 1014.7 0.0
22/02:30pm 25.6 24.8 12.8 45 7.4 E 9 11 5 6 1014.8 - 0.0
22/02:00pm 25.3 25.7 16.4 57 5.5 E 9 11 5 6 1015.2 - 0.0
22/01:30pm 25.3 25.8 15.6 55 5.9 ESE 7 9 4 5 1015.4 - 0.0
22/01:00pm 24.7 25.6 16.7 61 4.9 ENE 7 9 4 5 1015.8 - 0.0
22/12:30pm 24.8 25.2 16.2 58 5.3 S 9 13 5 7 1016.1 - 0.0
22/12:00pm 24.9 24.2 17.4 63 4.7 S 17 19 9 10 1016.4 1016.4 0.0
22/11:30am 23.9 21.9 16.4 63 4.6 S 22 24 12 13 1016.6 - 0.0
22/11:00am 23.4 20.7 16.7 66 4.1 S 26 30 14 16 1017.0 - 0.0
22/10:30am 23.0 19.6 15.8 64 4.3 S 28 32 15 17 1017.3 - 0.0
22/10:00am 22.7 18.5 15.8 65 4.2 S 32 35 17 19 1017.5 - 0.0
22/09:30am 22.5 18.3 15.8 66 4.0 S 32 35 17 19 1017.5 - 0.0
22/09:00am 22.3 18.3 16.1 68 3.7 S 32 39 17 21 1017.5 1017.5 0.0
22/08:30am 21.6 17.6 16.3 72 3.2 S 32 37 17 20 1017.3 - 0.0
22/08:00am 21.1 17.1 16.7 76 2.7 S 33 41 18 22 1017.0 - 0.0
22/07:30am 20.7 16.6 16.5 77 2.5 S 33 39 18 21 1016.8 - 0.0
22/07:00am 20.5 16.4 16.5 78 2.4 S 33 39 18 21 1016.8 - 0.0
22/06:30am 20.5 16.0 16.5 78 2.4 S 35 41 19 22 1016.6 - 0.0
22/06:00am 20.5 16.5 16.7 79 2.3 S 33 39 18 21 1016.4 1016.4 0.0
22/05:30am 20.7 16.4 16.9 79 2.3 S 35 41 19 22 1016.1 - 0.0
22/05:00am 20.8 16.6 17.2 80 2.2 S 35 43 19 23 1015.9 - 0.0
22/04:30am 20.8 16.2 17.0 79 2.3 S 37 44 20 24 1015.6 - 0.0
22/04:00am 21.0 15.7 17.2 79 2.3 S 41 48 22 26 1015.4 - 0.0
22/03:30am 21.0 16.1 17.4 80 2.2 S 39 44 21 24 1015.4 - 0.0
22/03:00am 21.0 16.1 17.4 80 2.2 S 39 46 21 25 1015.5 1015.5 0.0
22/02:30am 21.0 15.7 17.2 79 2.3 S 41 46 22 25 1015.8 - 0.0
22/02:00am 21.0 16.8 17.2 79 2.3 S 35 41 19 22 1016.1 - 0.0
22/01:30am 21.1 17.3 17.1 78 2.4 SSW 33 39 18 21 1016.3 - 0.0
22/01:00am 21.2 16.9 17.0 77 2.6 SSW 35 41 19 22 1016.6 - 0.0
22/12:30am 21.5 17.3 17.1 76 2.7 SSW 35 41 19 22 1016.7 - 0.0
22/12:00am 21.7 18.4 17.1 75 2.8 SSW 30 35 16 19 1016.8 1016.8 0.0
 
Date/Time
WST
Temp
°C
App
Temp
°C
Dew
Point
Rel
Hum
%
Delta-T
°C
Wind Press
QNH
hPa
Press
MSL
hPa
Rain
since 9 am
mm
Dir
 
Spd
km/h
Gust
km/h
Spd
kts
Gust
kts
21/11:30pm 21.7 19.5 16.9 74 2.9 SW 24 32 13 17 1016.9 - 0.0
21/11:00pm 21.5 19.4 16.2 72 3.2 SW 22 28 12 15 1017.0 - 0.0
21/10:30pm 21.5 19.2 15.8 70 3.4 SW 22 28 12 15 1017.1 - 0.0
21/10:00pm 21.1 18.9 15.0 68 3.6 WSW 20 22 11 12 1017.1 - 0.0
21/09:30pm 20.9 18.8 14.8 68 3.6 WSW 19 20 10 11 1017.0 - 0.0
21/09:00pm 20.9 18.6 14.1 65 3.9 WSW 19 20 10 11 1016.8 1016.8 0.0
21/08:30pm 20.6 18.3 14.0 66 3.8 WSW 19 20 10 11 1016.6 - 0.0
21/08:00pm 20.7 18.7 13.9 65 3.9 WSW 17 19 9 10 1016.4 - 0.0
21/07:30pm 21.2 18.8 13.9 63 4.2 WSW 19 20 10 11 1016.1 - 0.0
21/07:00pm 21.5 19.1 13.9 62 4.4 WSW 19 22 10 12 1015.6 - 0.0
21/06:30pm 21.7 19.3 13.9 61 4.5 WSW 19 24 10 13 1015.3 - 0.0
21/06:00pm 22.5 19.3 13.0 55 5.4 WSW 22 28 12 15 1015.1 1015.1 0.0
21/05:30pm 23.5 20.5 12.5 50 6.3 WSW 20 26 11 14 1014.9 - 0.0
21/05:00pm 24.3 21.1 11.9 45 7.0 WSW 20 24 11 13 1014.7 - 0.0
21/04:30pm 24.9 20.9 10.4 40 8.0 WSW 22 28 12 15 1014.6 - 0.0
21/04:00pm 25.6 21.6 10.6 39 8.4 WSW 22 26 12 14 1014.6 - 0.0
21/03:30pm 25.9 21.8 8.8 34 9.3 WSW 20 26 11 14 1014.5 - 0.0
21/03:00pm 26.2 21.8 7.3 30 10.0 SW 20 26 11 14 1014.6 1014.6 0.0
21/02:30pm 26.5 22.8 8.0 31 9.9 SSW 17 20 9 11 1014.7 - 0.0
21/02:00pm 25.6 23.1 6.7 30 9.9 S 9 13 5 7 1014.9 - 0.0
21/01:30pm 25.3 23.4 7.4 32 9.4 SE 7 9 4 5 1015.3 - 0.0
21/01:00pm 23.7 22.6 10.7 44 7.2 ESE 7 9 4 5 1015.8 - 0.0
21/12:30pm 23.8 22.7 10.8 44 7.2 ESE 7 9 4 5 1016.1 - 0.0
21/12:00pm 23.4 22.3 10.5 44 7.1 E 7 9 4 5 1016.4 1016.4 0.0
21/11:30am 23.7 22.0 10.0 42 7.5 E 9 9 5 5 1016.7 - 0.0
21/11:00am 23.3 21.9 11.0 46 6.8 E 9 13 5 7 1017.1 - 0.0
21/10:30am 23.1 21.8 11.2 47 6.6 E 9 13 5 7 1017.3 - 0.0
21/10:00am 22.9 20.8 11.0 47 6.6 ESE 13 15 7 8 1017.4 - 0.0
21/09:30am 22.3 19.3 10.8 48 6.3 ESE 17 20 9 11 1017.3 - 0.0
21/09:00am 22.4 19.1 10.9 48 6.3 SE 19 20 10 11 1017.2 1017.2 0.0
21/08:30am 21.7 17.5 11.1 51 5.9 SE 24 28 13 15 1016.8 - 0.0
21/08:00am 21.1 17.3 12.5 58 4.9 SE 24 28 13 15 1016.5 - 0.0
21/07:30am 20.7 15.8 12.4 59 4.7 SE 30 35 16 19 1016.2 - 0.0
21/07:00am 20.4 15.0 12.1 59 4.6 SSE 32 35 17 19 1015.8 - 0.0
21/06:30am 20.3 15.3 13.5 65 3.9 SSE 32 35 17 19 1015.6 - 0.0
21/06:00am 20.3 15.1 12.8 62 4.2 SSE 32 37 17 20 1015.3 1015.3 0.0
21/05:30am 20.4 15.4 13.4 64 4.0 SSE 32 37 17 20 1015.1 - 0.0
21/05:00am 20.4 15.3 13.6 65 3.9 S 33 39 18 21 1014.8 - 0.0
21/04:30am 20.5 15.6 14.2 67 3.7 S 33 37 18 20 1014.7 - 0.0
21/04:00am 20.7 15.5 13.4 63 4.2 S 33 39 18 21 1014.5 - 0.0
21/03:30am 20.9 16.0 13.6 63 4.2 S 32 35 17 19 1014.7 - 0.0
21/03:00am 20.9 16.3 13.6 63 4.2 S 30 33 16 18 1014.7 1014.7 0.0
21/02:30am 21.1 16.9 13.5 62 4.4 SSW 28 32 15 17 1015.0 - 0.0
21/02:00am 19.7 18.1 16.0 79 2.2 SW 19 26 10 14 1015.3 - 0.0
21/01:30am 19.3 18.5 16.0 81 2.0 SW 15 17 8 9 1015.5 - 0.0
21/01:00am 19.4 18.1 15.7 79 2.2 SW 17 19 9 10 1015.7 - 0.0
21/12:30am 19.4 17.8 16.1 81 2.0 SW 19 22 10 12 1016.0 - 0.0
21/12:00am 18.3 16.6 14.6 79 2.1 WSW 17 19 9 10 1016.1 1016.1 0.0
 
Date/Time
WST
Temp
°C
App
Temp
°C
Dew
Point
Rel
Hum
%
Delta-T
°C
Wind Press
QNH
hPa
Press
MSL
hPa
Rain
since 9 am
mm
Dir
 
Spd
km/h
Gust
km/h
Spd
kts
Gust
kts
20/11:30pm 18.5 16.6 15.2 81 1.9 WSW 19 20 10 11 1016.2 - 0.0
20/11:00pm 18.2 17.0 15.1 82 1.8 WSW 15 15 8 8 1016.3 - 0.0
20/10:30pm 17.4 16.1 13.7 79 2.1 WSW 13 15 7 8 1016.4 - 0.0
20/10:00pm 17.0 14.9 12.5 75 2.5 WSW 15 17 8 9 1016.4 - 0.0
20/09:30pm 17.2 15.3 11.7 70 3.0 SW 13 13 7 7 1016.4 - 0.0
20/09:00pm 17.0 15.5 10.6 66 3.4 SW 9 11 5 6 1016.4 1016.4 0.0
20/08:30pm 18.2 18.2 9.8 58 4.4 CALM 0 0 0 0 1016.2 - 0.0
20/08:00pm 19.0 18.8 8.9 52 5.3 CALM 0 0 0 0 1015.8 - 0.0
20/07:30pm 19.5 18.8 8.5 49 5.7 SSW 2 6 1 3 1015.3 - 0.0
20/07:00pm 20.7 20.8 10.2 51 5.7 CALM 0 0 0 0 1015.1 - 0.0
20/06:30pm 21.6 21.8 10.4 49 6.1 CALM 0 0 0 0 1015.0 - 0.0
20/06:00pm 22.8 22.2 11.8 50 6.2 SSW 6 6 3 3 1014.8 1014.8 0.0
20/05:30pm 23.6 22.8 11.6 47 6.8 SSW 7 9 4 5 1014.8 - 0.0
20/05:00pm 23.4 22.5 12.7 51 6.1 S 9 11 5 6 1014.7 - 0.0
20/04:30pm 23.8 22.6 11.5 46 6.9 S 9 11 5 6 1014.7 - 0.0
20/04:00pm 24.2 23.1 13.1 50 6.4 S 11 13 6 7 1014.8 - 0.0
20/03:30pm 24.3 22.7 12.9 49 6.6 S 13 17 7 9 1014.8 - 0.0
20/03:00pm 24.5 22.2 13.1 49 6.6 S 17 19 9 10 1014.9 1014.9 0.0
20/02:30pm 24.6 21.8 11.2 43 7.5 S 17 20 9 11 1015.1 - 0.0
20/02:00pm 24.7 22.2 12.3 46 7.1 S 17 20 9 11 1015.5 - 0.0
20/01:30pm 24.8 22.2 12.1 45 7.3 S 17 20 9 11 1015.9 - 0.0
20/01:00pm 25.2 22.1 11.7 43 7.7 S 19 22 10 12 1016.3 - 0.0
20/12:30pm 24.4 21.6 12.7 48 6.7 S 19 24 10 13 1016.7 - 0.0
20/12:00pm 24.5 21.5 12.5 47 6.9 S 20 24 11 13 1017.1 1017.1 0.0
20/11:30am 23.9 20.6 11.6 46 6.9 S 20 24 11 13 1017.4 - 0.0
20/11:00am 23.8 19.8 11.8 47 6.8 S 24 26 13 14 1017.6 - 0.0
20/10:30am 23.6 20.0 13.2 52 6.0 S 24 28 13 15 1017.8 - 0.0
20/10:00am 23.0 19.6 12.6 52 5.9 SSE 22 28 12 15 1018.0 - 0.0
20/09:30am 22.2 17.5 11.9 52 5.8 SSE 28 32 15 17 1018.1 - 0.0
20/09:00am 21.8 16.6 11.5 52 5.7 SSE 30 35 16 19 1018.0 1018.0 0.0
20/08:30am 21.3 15.5 11.6 54 5.4 S 33 37 18 20 1017.9 - 0.0
20/08:00am 20.8 15.2 11.4 55 5.2 SSE 32 37 17 20 1017.5 - 0.0
20/07:30am 20.2 14.3 10.6 54 5.2 SSE 32 35 17 19 1017.2 - 0.0
20/07:00am 19.9 14.6 12.4 62 4.2 S 32 37 17 20 1017.2 - 0.0
20/06:30am 19.5 13.5 12.0 62 4.2 S 35 39 19 21 1016.9 - 0.0
20/06:00am 19.5 13.9 12.0 62 4.2 S 33 37 18 20 1016.6 1016.6 0.0
20/05:30am 19.6 14.0 11.6 60 4.4 S 32 37 17 20 1016.4 - 0.0
20/05:00am 19.6 15.3 12.1 62 4.2 S 26 30 14 16 1016.2 - 0.0
20/04:30am 19.5 16.3 11.8 61 4.3 SSE 20 24 11 13 1016.1 - 0.0
20/04:00am 19.7 17.3 12.5 63 4.0 SSE 17 19 9 10 1016.4 - 0.0
20/03:30am 19.9 16.7 11.9 60 4.4 S 20 24 11 13 1016.6 - 0.0
20/03:00am 20.0 17.2 12.7 63 4.1 S 19 22 10 12 1016.6 1016.6 0.0
20/02:30am 20.4 16.6 12.4 60 4.5 S 24 32 13 17 1016.8 - 0.0
20/02:00am 20.7 17.8 13.9 65 3.9 S 22 26 12 14 1016.7 - 0.0
20/01:30am 20.8 17.6 14.2 66 3.8 S 24 30 13 16 1016.9 - 0.0
20/01:00am 21.0 17.5 14.4 66 3.9 S 26 30 14 16 1016.9 - 0.0
20/12:30am 21.1 17.6 14.5 66 3.9 SSW 26 30 14 16 1017.1 - 0.0
20/12:00am 21.4 18.5 15.0 67 3.8 SSW 24 30 13 16 1017.2 1017.2 0.0
 
Date/Time
WST
Temp
°C
App
Temp
°C
Dew
Point
Rel
Hum
%
Delta-T
°C
Wind Press
QNH
hPa
Press
MSL
hPa
Rain
since 9 am
mm
Dir
 
Spd
km/h
Gust
km/h
Spd
kts
Gust
kts
19/11:30pm 21.1 18.5 15.0 68 3.6 SSW 22 28 12 15 1017.5 - 0.0
19/11:00pm 21.2 19.0 16.0 72 3.1 SW 22 24 12 13 1017.6 - 0.0
19/10:30pm 21.1 19.2 16.7 76 2.7 SW 22 26 12 14 1017.7 - 0.0
19/10:00pm 21.4 19.5 16.8 75 2.8 SW 22 26 12 14 1017.6 - 0.0
19/09:30pm 20.5 20.0 15.9 75 2.7 WSW 13 17 7 9 1017.6 - 0.0
19/09:00pm 21.1 19.9 16.1 73 3.0 SW 17 19 9 10 1017.5 1017.5 0.0
19/08:30pm 21.3 19.9 16.5 74 2.9 SW 19 22 10 12 1017.3 - 0.0
19/08:00pm 21.4 20.3 17.2 77 2.6 SW 19 22 10 12 1016.9 - 0.0
19/07:30pm 21.6 20.6 17.6 78 2.5 SW 19 22 10 12 1016.7 - 0.0
19/07:00pm 21.8 20.7 17.4 76 2.7 SW 19 22 10 12 1016.4 - 0.0
19/06:30pm 22.2 20.9 17.3 74 3.0 SW 20 24 11 13 1016.2 - 0.0
19/06:00pm 22.9 20.3 16.9 69 3.7 SW 26 30 14 16 1016.0 1016.0 0.0

Other Formats:

Comma delimited format used in spreadsheet applications
http://www.bom.gov.au/fwo/IDW60801/IDW60801.95304.axf

JavaScript Object Notation format (JSON) in row-major order
http://www.bom.gov.au/fwo/IDW60801/IDW60801.95304.json